sensor_id;sensor_type;location;lat;lon;timestamp;P1;durP1;ratioP1;P2;durP2;ratioP2
20649;SDS011;10484;48.736;9.332;2024-03-02T00:01:06;12.80;;;11.50;;
20649;SDS011;10484;48.736;9.332;2024-03-02T00:03:32;12.83;;;11.53;;
20649;SDS011;10484;48.736;9.332;2024-03-02T00:05:58;14.27;;;12.00;;
20649;SDS011;10484;48.736;9.332;2024-03-02T00:08:24;12.53;;;11.30;;
20649;SDS011;10484;48.736;9.332;2024-03-02T00:11:00;12.85;;;11.02;;
20649;SDS011;10484;48.736;9.332;2024-03-02T00:13:27;13.27;;;11.90;;
20649;SDS011;10484;48.736;9.332;2024-03-02T00:15:55;13.98;;;11.85;;
20649;SDS011;10484;48.736;9.332;2024-03-02T00:18:25;12.27;;;10.98;;
20649;SDS011;10484;48.736;9.332;2024-03-02T00:21:00;13.02;;;11.75;;
20649;SDS011;10484;48.736;9.332;2024-03-02T00:23:29;12.15;;;10.13;;
20649;SDS011;10484;48.736;9.332;2024-03-02T00:25:56;12.68;;;11.48;;
20649;SDS011;10484;48.736;9.332;2024-03-02T00:33:25;13.38;;;10.07;;
20649;SDS011;10484;48.736;9.332;2024-03-02T00:35:55;12.50;;;10.73;;
20649;SDS011;10484;48.736;9.332;2024-03-02T00:38:21;11.77;;;10.53;;
20649;SDS011;10484;48.736;9.332;2024-03-02T00:40:47;11.80;;;10.43;;
20649;SDS011;10484;48.736;9.332;2024-03-02T00:43:20;13.03;;;11.00;;
20649;SDS011;10484;48.736;9.332;2024-03-02T00:46:13;11.80;;;10.27;;
20649;SDS011;10484;48.736;9.332;2024-03-02T00:49:00;12.48;;;10.65;;
20649;SDS011;10484;48.736;9.332;2024-03-02T00:51:27;12.57;;;11.15;;
20649;SDS011;10484;48.736;9.332;2024-03-02T00:53:55;13.97;;;11.17;;
20649;SDS011;10484;48.736;9.332;2024-03-02T00:56:24;11.82;;;10.52;;
20649;SDS011;10484;48.736;9.332;2024-03-02T00:58:50;13.70;;;11.30;;
20649;SDS011;10484;48.736;9.332;2024-03-02T01:01:16;14.83;;;11.40;;
20649;SDS011;10484;48.736;9.332;2024-03-02T01:03:42;13.07;;;10.67;;
20649;SDS011;10484;48.736;9.332;2024-03-02T01:06:07;13.10;;;11.77;;
20649;SDS011;10484;48.736;9.332;2024-03-02T01:08:34;14.47;;;11.70;;
20649;SDS011;10484;48.736;9.332;2024-03-02T01:11:01;13.93;;;10.95;;
20649;SDS011;10484;48.736;9.332;2024-03-02T01:13:26;14.27;;;11.35;;
20649;SDS011;10484;48.736;9.332;2024-03-02T01:15:52;13.23;;;11.00;;
20649;SDS011;10484;48.736;9.332;2024-03-02T01:18:18;11.13;;;9.37;;
20649;SDS011;10484;48.736;9.332;2024-03-02T01:20:44;13.20;;;11.10;;
20649;SDS011;10484;48.736;9.332;2024-03-02T01:23:10;13.43;;;9.85;;
20649;SDS011;10484;48.736;9.332;2024-03-02T01:25:36;14.33;;;10.60;;
20649;SDS011;10484;48.736;9.332;2024-03-02T01:28:02;14.73;;;10.57;;
20649;SDS011;10484;48.736;9.332;2024-03-02T01:30:28;14.82;;;12.00;;
20649;SDS011;10484;48.736;9.332;2024-03-02T01:32:53;13.07;;;10.70;;
20649;SDS011;10484;48.736;9.332;2024-03-02T01:35:19;15.23;;;11.67;;
20649;SDS011;10484;48.736;9.332;2024-03-02T01:37:44;14.10;;;10.73;;
20649;SDS011;10484;48.736;9.332;2024-03-02T01:40:10;18.67;;;12.87;;
20649;SDS011;10484;48.736;9.332;2024-03-02T01:42:36;14.18;;;10.30;;
20649;SDS011;10484;48.736;9.332;2024-03-02T01:45:06;12.30;;;10.60;;
20649;SDS011;10484;48.736;9.332;2024-03-02T01:47:32;13.50;;;11.68;;
20649;SDS011;10484;48.736;9.332;2024-03-02T01:49:58;14.60;;;11.10;;
20649;SDS011;10484;48.736;9.332;2024-03-02T01:52:24;14.40;;;11.45;;
20649;SDS011;10484;48.736;9.332;2024-03-02T01:54:50;13.83;;;11.00;;
20649;SDS011;10484;48.736;9.332;2024-03-02T01:57:16;14.93;;;11.40;;
20649;SDS011;10484;48.736;9.332;2024-03-02T01:59:42;17.50;;;11.27;;
20649;SDS011;10484;48.736;9.332;2024-03-02T02:02:07;12.77;;;9.83;;
20649;SDS011;10484;48.736;9.332;2024-03-02T02:04:33;12.37;;;10.53;;
20649;SDS011;10484;48.736;9.332;2024-03-02T02:06:59;14.30;;;10.70;;
20649;SDS011;10484;48.736;9.332;2024-03-02T02:09:25;13.53;;;10.30;;
20649;SDS011;10484;48.736;9.332;2024-03-02T02:11:51;14.97;;;10.30;;
20649;SDS011;10484;48.736;9.332;2024-03-02T02:14:16;14.50;;;10.40;;
20649;SDS011;10484;48.736;9.332;2024-03-02T02:16:42;12.57;;;9.87;;
20649;SDS011;10484;48.736;9.332;2024-03-02T02:19:08;12.07;;;10.37;;
20649;SDS011;10484;48.736;9.332;2024-03-02T02:21:34;12.73;;;10.57;;
20649;SDS011;10484;48.736;9.332;2024-03-02T02:24:00;12.13;;;10.43;;
20649;SDS011;10484;48.736;9.332;2024-03-02T02:26:28;10.88;;;9.00;;
20649;SDS011;10484;48.736;9.332;2024-03-02T02:28:53;11.60;;;9.27;;
20649;SDS011;10484;48.736;9.332;2024-03-02T02:31:19;12.37;;;10.13;;
20649;SDS011;10484;48.736;9.332;2024-03-02T02:33:45;12.07;;;9.67;;
20649;SDS011;10484;48.736;9.332;2024-03-02T02:36:10;9.83;;;8.50;;
20649;SDS011;10484;48.736;9.332;2024-03-02T02:38:38;11.30;;;9.00;;
20649;SDS011;10484;48.736;9.332;2024-03-02T02:41:07;11.50;;;9.70;;
20649;SDS011;10484;48.736;9.332;2024-03-02T02:43:33;11.53;;;9.73;;
20649;SDS011;10484;48.736;9.332;2024-03-02T02:45:59;11.53;;;9.70;;
20649;SDS011;10484;48.736;9.332;2024-03-02T02:48:24;11.67;;;9.20;;
20649;SDS011;10484;48.736;9.332;2024-03-02T02:50:50;8.93;;;8.03;;
20649;SDS011;10484;48.736;9.332;2024-03-02T02:53:16;11.73;;;9.97;;
20649;SDS011;10484;48.736;9.332;2024-03-02T02:55:41;10.97;;;9.67;;
20649;SDS011;10484;48.736;9.332;2024-03-02T02:58:08;10.80;;;9.70;;
20649;SDS011;10484;48.736;9.332;2024-03-02T03:00:34;11.43;;;8.98;;
20649;SDS011;10484;48.736;9.332;2024-03-02T03:03:01;11.02;;;9.60;;
20649;SDS011;10484;48.736;9.332;2024-03-02T03:05:27;10.70;;;9.15;;
20649;SDS011;10484;48.736;9.332;2024-03-02T03:07:53;10.45;;;8.65;;
20649;SDS011;10484;48.736;9.332;2024-03-02T03:10:19;10.97;;;9.10;;
20649;SDS011;10484;48.736;9.332;2024-03-02T03:12:47;9.88;;;8.85;;
20649;SDS011;10484;48.736;9.332;2024-03-02T03:15:13;10.17;;;8.43;;
20649;SDS011;10484;48.736;9.332;2024-03-02T03:17:39;10.63;;;8.02;;
20649;SDS011;10484;48.736;9.332;2024-03-02T03:20:05;10.70;;;8.32;;
20649;SDS011;10484;48.736;9.332;2024-03-02T03:22:34;11.32;;;9.13;;
20649;SDS011;10484;48.736;9.332;2024-03-02T03:25:00;11.52;;;9.45;;
20649;SDS011;10484;48.736;9.332;2024-03-02T03:27:26;11.70;;;9.63;;
20649;SDS011;10484;48.736;9.332;2024-03-02T03:29:52;10.90;;;9.70;;
20649;SDS011;10484;48.736;9.332;2024-03-02T03:32:17;10.90;;;9.13;;
20649;SDS011;10484;48.736;9.332;2024-03-02T03:34:43;11.30;;;9.17;;
20649;SDS011;10484;48.736;9.332;2024-03-02T03:37:09;15.87;;;10.73;;
20649;SDS011;10484;48.736;9.332;2024-03-02T03:39:35;9.43;;;8.40;;
20649;SDS011;10484;48.736;9.332;2024-03-02T03:42:01;12.25;;;9.68;;
20649;SDS011;10484;48.736;9.332;2024-03-02T03:44:26;14.20;;;10.37;;
20649;SDS011;10484;48.736;9.332;2024-03-02T03:46:52;12.47;;;10.13;;
20649;SDS011;10484;48.736;9.332;2024-03-02T03:49:17;12.77;;;10.17;;
20649;SDS011;10484;48.736;9.332;2024-03-02T03:51:43;13.50;;;8.73;;
20649;SDS011;10484;48.736;9.332;2024-03-02T03:54:09;13.97;;;10.67;;
20649;SDS011;10484;48.736;9.332;2024-03-02T03:56:36;11.20;;;9.25;;
20649;SDS011;10484;48.736;9.332;2024-03-02T03:59:01;11.33;;;9.27;;
20649;SDS011;10484;48.736;9.332;2024-03-02T04:01:27;10.70;;;9.30;;
20649;SDS011;10484;48.736;9.332;2024-03-02T04:03:53;13.50;;;9.77;;
20649;SDS011;10484;48.736;9.332;2024-03-02T04:06:18;10.83;;;8.73;;
20649;SDS011;10484;48.736;9.332;2024-03-02T04:08:44;11.50;;;9.10;;
20649;SDS011;10484;48.736;9.332;2024-03-02T04:11:10;11.73;;;9.03;;
20649;SDS011;10484;48.736;9.332;2024-03-02T04:13:35;11.57;;;9.03;;
20649;SDS011;10484;48.736;9.332;2024-03-02T04:16:01;11.70;;;8.97;;
20649;SDS011;10484;48.736;9.332;2024-03-02T04:18:28;12.32;;;9.80;;
20649;SDS011;10484;48.736;9.332;2024-03-02T04:20:54;12.57;;;10.70;;
20649;SDS011;10484;48.736;9.332;2024-03-02T04:23:19;10.40;;;8.50;;
20649;SDS011;10484;48.736;9.332;2024-03-02T04:25:45;12.03;;;10.33;;
20649;SDS011;10484;48.736;9.332;2024-03-02T04:28:10;12.53;;;9.83;;
20649;SDS011;10484;48.736;9.332;2024-03-02T04:30:37;12.70;;;10.05;;
20649;SDS011;10484;48.736;9.332;2024-03-02T04:33:03;12.03;;;10.23;;
20649;SDS011;10484;48.736;9.332;2024-03-02T04:35:33;11.23;;;9.15;;
20649;SDS011;10484;48.736;9.332;2024-03-02T04:37:59;11.45;;;9.32;;
20649;SDS011;10484;48.736;9.332;2024-03-02T04:40:24;13.77;;;10.77;;
20649;SDS011;10484;48.736;9.332;2024-03-02T04:42:50;11.63;;;9.93;;
20649;SDS011;10484;48.736;9.332;2024-03-02T04:45:15;11.53;;;8.83;;
20649;SDS011;10484;48.736;9.332;2024-03-02T04:47:41;14.33;;;10.37;;
20649;SDS011;10484;48.736;9.332;2024-03-02T04:50:07;11.60;;;9.63;;
20649;SDS011;10484;48.736;9.332;2024-03-02T04:52:32;11.87;;;9.17;;
20649;SDS011;10484;48.736;9.332;2024-03-02T04:54:58;14.33;;;10.00;;
20649;SDS011;10484;48.736;9.332;2024-03-02T04:58:00;15.18;;;10.60;;
20649;SDS011;10484;48.736;9.332;2024-03-02T05:00:25;14.03;;;11.10;;
20649;SDS011;10484;48.736;9.332;2024-03-02T05:02:51;15.83;;;11.57;;
20649;SDS011;10484;48.736;9.332;2024-03-02T05:05:16;14.07;;;10.87;;
20649;SDS011;10484;48.736;9.332;2024-03-02T05:07:42;14.70;;;10.73;;
20649;SDS011;10484;48.736;9.332;2024-03-02T05:10:09;11.95;;;10.50;;
20649;SDS011;10484;48.736;9.332;2024-03-02T05:12:35;14.63;;;10.70;;
20649;SDS011;10484;48.736;9.332;2024-03-02T05:15:07;12.82;;;11.05;;
20649;SDS011;10484;48.736;9.332;2024-03-02T05:17:33;14.52;;;11.20;;
20649;SDS011;10484;48.736;9.332;2024-03-02T05:19:58;11.00;;;8.90;;
20649;SDS011;10484;48.736;9.332;2024-03-02T05:22:24;20.17;;;11.63;;
20649;SDS011;10484;48.736;9.332;2024-03-02T05:24:50;14.90;;;11.50;;
20649;SDS011;10484;48.736;9.332;2024-03-02T05:27:15;13.17;;;10.60;;
20649;SDS011;10484;48.736;9.332;2024-03-02T05:29:41;14.40;;;10.70;;
20649;SDS011;10484;48.736;9.332;2024-03-02T05:32:06;15.00;;;10.43;;
20649;SDS011;10484;48.736;9.332;2024-03-02T05:34:32;15.30;;;11.77;;
20649;SDS011;10484;48.736;9.332;2024-03-02T05:37:00;13.93;;;11.35;;
20649;SDS011;10484;48.736;9.332;2024-03-02T05:39:26;14.43;;;11.18;;
20649;SDS011;10484;48.736;9.332;2024-03-02T05:41:51;18.40;;;13.10;;
20649;SDS011;10484;48.736;9.332;2024-03-02T05:44:17;13.87;;;11.40;;
20649;SDS011;10484;48.736;9.332;2024-03-02T05:46:43;14.00;;;10.90;;
20649;SDS011;10484;48.736;9.332;2024-03-02T05:49:09;13.30;;;10.30;;
20649;SDS011;10484;48.736;9.332;2024-03-02T05:51:35;16.47;;;12.23;;
20649;SDS011;10484;48.736;9.332;2024-03-02T05:54:01;15.03;;;12.00;;
20649;SDS011;10484;48.736;9.332;2024-03-02T05:56:26;15.73;;;11.43;;
20649;SDS011;10484;48.736;9.332;2024-03-02T05:58:52;14.87;;;11.67;;
20649;SDS011;10484;48.736;9.332;2024-03-02T06:01:36;17.88;;;9.90;;
20649;SDS011;10484;48.736;9.332;2024-03-02T06:04:02;14.50;;;11.03;;
20649;SDS011;10484;48.736;9.332;2024-03-02T06:06:27;15.47;;;11.97;;
20649;SDS011;10484;48.736;9.332;2024-03-02T06:08:53;15.10;;;10.83;;
20649;SDS011;10484;48.736;9.332;2024-03-02T06:11:19;16.70;;;11.83;;
20649;SDS011;10484;48.736;9.332;2024-03-02T06:13:45;13.60;;;10.98;;
20649;SDS011;10484;48.736;9.332;2024-03-02T06:16:11;15.27;;;11.97;;
20649;SDS011;10484;48.736;9.332;2024-03-02T06:18:36;13.37;;;11.97;;
20649;SDS011;10484;48.736;9.332;2024-03-02T06:21:02;16.70;;;11.70;;
20649;SDS011;10484;48.736;9.332;2024-03-02T06:23:28;17.60;;;12.10;;
20649;SDS011;10484;48.736;9.332;2024-03-02T06:25:54;12.87;;;10.57;;
20649;SDS011;10484;48.736;9.332;2024-03-02T06:28:19;15.13;;;11.90;;
20649;SDS011;10484;48.736;9.332;2024-03-02T06:30:45;15.82;;;11.38;;
20649;SDS011;10484;48.736;9.332;2024-03-02T06:33:11;12.77;;;9.97;;
20649;SDS011;10484;48.736;9.332;2024-03-02T06:35:37;11.40;;;10.13;;
20649;SDS011;10484;48.736;9.332;2024-03-02T06:38:03;17.07;;;11.87;;
20649;SDS011;10484;48.736;9.332;2024-03-02T06:40:28;14.20;;;11.13;;
20649;SDS011;10484;48.736;9.332;2024-03-02T06:42:54;15.20;;;11.70;;
20649;SDS011;10484;48.736;9.332;2024-03-02T06:45:20;14.90;;;11.17;;
20649;SDS011;10484;48.736;9.332;2024-03-02T06:47:45;14.67;;;12.70;;
20649;SDS011;10484;48.736;9.332;2024-03-02T06:50:11;16.57;;;12.47;;
20649;SDS011;10484;48.736;9.332;2024-03-02T06:52:37;16.30;;;12.30;;
20649;SDS011;10484;48.736;9.332;2024-03-02T06:55:02;15.90;;;12.10;;
20649;SDS011;10484;48.736;9.332;2024-03-02T06:57:29;16.08;;;12.65;;
20649;SDS011;10484;48.736;9.332;2024-03-02T06:59:55;18.93;;;13.70;;
20649;SDS011;10484;48.736;9.332;2024-03-02T07:02:23;16.10;;;11.60;;
20649;SDS011;10484;48.736;9.332;2024-03-02T07:04:52;17.02;;;12.55;;
20649;SDS011;10484;48.736;9.332;2024-03-02T07:07:18;15.82;;;12.25;;
20649;SDS011;10484;48.736;9.332;2024-03-02T07:09:44;15.67;;;12.10;;
20649;SDS011;10484;48.736;9.332;2024-03-02T07:12:09;17.00;;;13.00;;
20649;SDS011;10484;48.736;9.332;2024-03-02T07:14:35;16.27;;;13.50;;
20649;SDS011;10484;48.736;9.332;2024-03-02T07:17:19;17.23;;;13.00;;
20649;SDS011;10484;48.736;9.332;2024-03-02T07:19:45;18.87;;;13.33;;
20649;SDS011;10484;48.736;9.332;2024-03-02T07:22:11;20.10;;;13.23;;
20649;SDS011;10484;48.736;9.332;2024-03-02T07:24:40;22.20;;;15.07;;
20649;SDS011;10484;48.736;9.332;2024-03-02T07:27:07;20.50;;;15.05;;
20649;SDS011;10484;48.736;9.332;2024-03-02T07:29:33;18.33;;;13.48;;
20649;SDS011;10484;48.736;9.332;2024-03-02T07:31:59;16.93;;;13.63;;
20649;SDS011;10484;48.736;9.332;2024-03-02T07:34:25;16.90;;;12.63;;
20649;SDS011;10484;48.736;9.332;2024-03-02T07:36:50;19.53;;;15.27;;
20649;SDS011;10484;48.736;9.332;2024-03-02T07:39:16;19.07;;;15.00;;
20649;SDS011;10484;48.736;9.332;2024-03-02T07:41:42;21.93;;;15.00;;
20649;SDS011;10484;48.736;9.332;2024-03-02T07:44:07;17.10;;;14.50;;
20649;SDS011;10484;48.736;9.332;2024-03-02T07:46:33;15.83;;;13.87;;
20649;SDS011;10484;48.736;9.332;2024-03-02T07:48:59;16.40;;;14.23;;
20649;SDS011;10484;48.736;9.332;2024-03-02T07:51:24;18.60;;;16.50;;
20649;SDS011;10484;48.736;9.332;2024-03-02T07:53:50;19.30;;;15.80;;
20649;SDS011;10484;48.736;9.332;2024-03-02T07:56:15;20.57;;;15.40;;
20649;SDS011;10484;48.736;9.332;2024-03-02T07:58:47;20.98;;;17.33;;
20649;SDS011;10484;48.736;9.332;2024-03-02T08:01:14;18.02;;;15.30;;
20649;SDS011;10484;48.736;9.332;2024-03-02T08:03:40;23.52;;;17.95;;
20649;SDS011;10484;48.736;9.332;2024-03-02T08:06:06;21.87;;;16.70;;
20649;SDS011;10484;48.736;9.332;2024-03-02T08:08:31;24.93;;;18.87;;
20649;SDS011;10484;48.736;9.332;2024-03-02T08:10:57;25.23;;;19.40;;
20649;SDS011;10484;48.736;9.332;2024-03-02T08:13:23;21.50;;;16.73;;
20649;SDS011;10484;48.736;9.332;2024-03-02T08:15:48;25.40;;;18.70;;
20649;SDS011;10484;48.736;9.332;2024-03-02T08:18:14;25.20;;;19.60;;
20649;SDS011;10484;48.736;9.332;2024-03-02T08:20:40;20.20;;;16.93;;
20649;SDS011;10484;48.736;9.332;2024-03-02T08:23:06;22.13;;;17.55;;
20649;SDS011;10484;48.736;9.332;2024-03-02T08:25:33;22.58;;;18.80;;
20649;SDS011;10484;48.736;9.332;2024-03-02T08:27:58;22.77;;;17.07;;
20649;SDS011;10484;48.736;9.332;2024-03-02T08:30:24;21.93;;;18.00;;
20649;SDS011;10484;48.736;9.332;2024-03-02T08:32:50;24.57;;;19.23;;
20649;SDS011;10484;48.736;9.332;2024-03-02T08:35:15;25.20;;;19.53;;
20649;SDS011;10484;48.736;9.332;2024-03-02T08:37:42;23.08;;;18.65;;
20649;SDS011;10484;48.736;9.332;2024-03-02T08:40:08;25.10;;;19.30;;
20649;SDS011;10484;48.736;9.332;2024-03-02T08:42:36;25.27;;;19.23;;
20649;SDS011;10484;48.736;9.332;2024-03-02T08:45:02;25.40;;;19.70;;
20649;SDS011;10484;48.736;9.332;2024-03-02T08:47:27;23.10;;;18.70;;
20649;SDS011;10484;48.736;9.332;2024-03-02T08:49:53;24.27;;;19.30;;
20649;SDS011;10484;48.736;9.332;2024-03-02T08:52:19;25.10;;;19.53;;
20649;SDS011;10484;48.736;9.332;2024-03-02T08:54:44;23.47;;;19.20;;
20649;SDS011;10484;48.736;9.332;2024-03-02T08:57:10;23.70;;;19.10;;
20649;SDS011;10484;48.736;9.332;2024-03-02T08:59:35;21.90;;;17.73;;
20649;SDS011;10484;48.736;9.332;2024-03-02T09:02:01;23.17;;;18.47;;
20649;SDS011;10484;48.736;9.332;2024-03-02T09:04:27;21.67;;;18.70;;
20649;SDS011;10484;48.736;9.332;2024-03-02T09:06:53;21.25;;;17.30;;
20649;SDS011;10484;48.736;9.332;2024-03-02T09:09:19;23.10;;;17.33;;
20649;SDS011;10484;48.736;9.332;2024-03-02T09:11:45;19.20;;;16.07;;
20649;SDS011;10484;48.736;9.332;2024-03-02T09:14:11;20.02;;;16.40;;
20649;SDS011;10484;48.736;9.332;2024-03-02T09:16:37;17.07;;;14.70;;
20649;SDS011;10484;48.736;9.332;2024-03-02T09:19:03;16.83;;;14.17;;
20649;SDS011;10484;48.736;9.332;2024-03-02T09:21:28;20.70;;;15.67;;
20649;SDS011;10484;48.736;9.332;2024-03-02T09:23:55;16.07;;;14.33;;
20649;SDS011;10484;48.736;9.332;2024-03-02T09:26:21;15.15;;;13.52;;
20649;SDS011;10484;48.736;9.332;2024-03-02T09:28:47;13.80;;;12.30;;
20649;SDS011;10484;48.736;9.332;2024-03-02T09:31:13;12.60;;;11.30;;
20649;SDS011;10484;48.736;9.332;2024-03-02T09:33:38;12.00;;;10.67;;
20649;SDS011;10484;48.736;9.332;2024-03-02T09:36:04;12.17;;;10.87;;
20649;SDS011;10484;48.736;9.332;2024-03-02T09:38:32;11.87;;;10.00;;
20649;SDS011;10484;48.736;9.332;2024-03-02T09:40:59;13.07;;;11.20;;
20649;SDS011;10484;48.736;9.332;2024-03-02T09:43:25;9.90;;;8.90;;
20649;SDS011;10484;48.736;9.332;2024-03-02T09:45:51;9.20;;;8.30;;
20649;SDS011;10484;48.736;9.332;2024-03-02T09:48:18;9.07;;;8.17;;
20649;SDS011;10484;48.736;9.332;2024-03-02T09:50:45;7.30;;;6.60;;
20649;SDS011;10484;48.736;9.332;2024-03-02T09:53:11;7.20;;;6.50;;
20649;SDS011;10484;48.736;9.332;2024-03-02T09:55:37;8.87;;;7.50;;
20649;SDS011;10484;48.736;9.332;2024-03-02T09:58:03;9.37;;;8.07;;
20649;SDS011;10484;48.736;9.332;2024-03-02T10:00:29;7.70;;;6.93;;
20649;SDS011;10484;48.736;9.332;2024-03-02T10:02:55;8.33;;;7.40;;
20649;SDS011;10484;48.736;9.332;2024-03-02T10:05:26;7.60;;;6.90;;
20649;SDS011;10484;48.736;9.332;2024-03-02T10:08:01;9.17;;;6.87;;
20649;SDS011;10484;48.736;9.332;2024-03-02T10:10:34;7.77;;;7.00;;
20649;SDS011;10484;48.736;9.332;2024-03-02T10:13:08;7.00;;;6.40;;
20649;SDS011;10484;48.736;9.332;2024-03-02T10:15:35;7.40;;;6.67;;
20649;SDS011;10484;48.736;9.332;2024-03-02T10:18:11;6.00;;;5.40;;
20649;SDS011;10484;48.736;9.332;2024-03-02T10:20:38;6.83;;;5.90;;
20649;SDS011;10484;48.736;9.332;2024-03-02T10:23:11;6.47;;;5.87;;
20649;SDS011;10484;48.736;9.332;2024-03-02T10:25:38;6.03;;;5.43;;
20649;SDS011;10484;48.736;9.332;2024-03-02T10:28:04;6.73;;;6.03;;
20649;SDS011;10484;48.736;9.332;2024-03-02T10:30:31;6.33;;;5.30;;
20649;SDS011;10484;48.736;9.332;2024-03-02T10:32:56;5.50;;;5.00;;
20649;SDS011;10484;48.736;9.332;2024-03-02T10:35:22;5.00;;;4.30;;
20649;SDS011;10484;48.736;9.332;2024-03-02T10:37:48;5.50;;;4.67;;
20649;SDS011;10484;48.736;9.332;2024-03-02T10:40:15;5.00;;;4.50;;
20649;SDS011;10484;48.736;9.332;2024-03-02T10:42:41;4.93;;;4.10;;
20649;SDS011;10484;48.736;9.332;2024-03-02T10:45:09;5.37;;;4.87;;
20649;SDS011;10484;48.736;9.332;2024-03-02T10:47:38;4.60;;;4.10;;
20649;SDS011;10484;48.736;9.332;2024-03-02T10:50:06;4.67;;;4.27;;
20649;SDS011;10484;48.736;9.332;2024-03-02T10:52:39;4.00;;;3.63;;
20649;SDS011;10484;48.736;9.332;2024-03-02T10:55:05;3.63;;;3.33;;
20649;SDS011;10484;48.736;9.332;2024-03-02T10:57:55;3.97;;;2.83;;
20649;SDS011;10484;48.736;9.332;2024-03-02T11:00:21;3.47;;;3.17;;
20649;SDS011;10484;48.736;9.332;2024-03-02T11:02:58;3.30;;;3.00;;
20649;SDS011;10484;48.736;9.332;2024-03-02T11:05:36;3.20;;;2.90;;
20649;SDS011;10484;48.736;9.332;2024-03-02T11:08:07;3.60;;;2.67;;
20649;SDS011;10484;48.736;9.332;2024-03-02T11:10:52;3.27;;;2.73;;
20649;SDS011;10484;48.736;9.332;2024-03-02T11:13:31;2.83;;;2.53;;
20649;SDS011;10484;48.736;9.332;2024-03-02T11:16:09;3.53;;;2.50;;
20649;SDS011;10484;48.736;9.332;2024-03-02T11:19:11;2.80;;;2.60;;
20649;SDS011;10484;48.736;9.332;2024-03-02T11:21:38;3.27;;;2.97;;
20649;SDS011;10484;48.736;9.332;2024-03-02T11:26:48;2.80;;;2.60;;
20649;SDS011;10484;48.736;9.332;2024-03-02T11:32:05;2.70;;;2.17;;
20649;SDS011;10484;48.736;9.332;2024-03-02T11:34:39;2.20;;;2.00;;
20649;SDS011;10484;48.736;9.332;2024-03-02T11:37:10;1.83;;;1.73;;
20649;SDS011;10484;48.736;9.332;2024-03-02T11:39:36;2.83;;;2.60;;
20649;SDS011;10484;48.736;9.332;2024-03-02T11:42:05;2.27;;;1.83;;
20649;SDS011;10484;48.736;9.332;2024-03-02T11:44:33;1.83;;;1.57;;
20649;SDS011;10484;48.736;9.332;2024-03-02T11:47:00;1.37;;;1.23;;
20649;SDS011;10484;48.736;9.332;2024-03-02T11:52:10;1.53;;;1.43;;
20649;SDS011;10484;48.736;9.332;2024-03-02T11:54:38;1.57;;;1.47;;
20649;SDS011;10484;48.736;9.332;2024-03-02T11:57:06;1.47;;;1.37;;
20649;SDS011;10484;48.736;9.332;2024-03-02T11:59:32;1.77;;;1.43;;
20649;SDS011;10484;48.736;9.332;2024-03-02T12:01:58;1.67;;;1.50;;
20649;SDS011;10484;48.736;9.332;2024-03-02T12:04:25;2.77;;;1.70;;
20649;SDS011;10484;48.736;9.332;2024-03-02T12:06:54;1.90;;;1.00;;
20649;SDS011;10484;48.736;9.332;2024-03-02T12:09:21;1.17;;;0.98;;
20649;SDS011;10484;48.736;9.332;2024-03-02T12:11:47;1.25;;;1.15;;
20649;SDS011;10484;48.736;9.332;2024-03-02T12:14:12;2.45;;;1.30;;
20649;SDS011;10484;48.736;9.332;2024-03-02T12:16:38;1.20;;;1.08;;
20649;SDS011;10484;48.736;9.332;2024-03-02T12:19:05;2.17;;;1.10;;
20649;SDS011;10484;48.736;9.332;2024-03-02T12:21:31;1.80;;;1.00;;
20649;SDS011;10484;48.736;9.332;2024-03-02T12:23:56;1.50;;;0.80;;
20649;SDS011;10484;48.736;9.332;2024-03-02T12:26:22;1.33;;;0.93;;
20649;SDS011;10484;48.736;9.332;2024-03-02T12:28:49;0.80;;;0.80;;
20649;SDS011;10484;48.736;9.332;2024-03-02T12:31:14;0.70;;;0.70;;
20649;SDS011;10484;48.736;9.332;2024-03-02T12:33:40;1.47;;;0.70;;
20649;SDS011;10484;48.736;9.332;2024-03-02T12:36:09;1.33;;;1.20;;
20649;SDS011;10484;48.736;9.332;2024-03-02T12:38:37;2.40;;;2.20;;
20649;SDS011;10484;48.736;9.332;2024-03-02T12:41:02;2.37;;;1.97;;
20649;SDS011;10484;48.736;9.332;2024-03-02T12:43:30;1.57;;;1.47;;
20649;SDS011;10484;48.736;9.332;2024-03-02T12:45:56;1.87;;;1.40;;
20649;SDS011;10484;48.736;9.332;2024-03-02T12:48:23;1.17;;;1.03;;
20649;SDS011;10484;48.736;9.332;2024-03-02T12:50:49;1.43;;;1.10;;
20649;SDS011;10484;48.736;9.332;2024-03-02T12:53:15;1.37;;;1.27;;
20649;SDS011;10484;48.736;9.332;2024-03-02T12:55:41;0.83;;;0.77;;
20649;SDS011;10484;48.736;9.332;2024-03-02T12:58:07;0.90;;;0.90;;
20649;SDS011;10484;48.736;9.332;2024-03-02T13:00:32;0.97;;;0.77;;
20649;SDS011;10484;48.736;9.332;2024-03-02T13:03:00;1.50;;;1.40;;
20649;SDS011;10484;48.736;9.332;2024-03-02T13:05:31;1.00;;;0.90;;
20649;SDS011;10484;48.736;9.332;2024-03-02T13:07:58;0.70;;;0.70;;
20649;SDS011;10484;48.736;9.332;2024-03-02T13:10:24;1.03;;;0.60;;
20649;SDS011;10484;48.736;9.332;2024-03-02T13:12:50;0.70;;;0.70;;
20649;SDS011;10484;48.736;9.332;2024-03-02T13:15:16;0.60;;;0.60;;
20649;SDS011;10484;48.736;9.332;2024-03-02T13:17:41;1.00;;;0.90;;
20649;SDS011;10484;48.736;9.332;2024-03-02T13:20:07;0.90;;;0.70;;
20649;SDS011;10484;48.736;9.332;2024-03-02T13:22:35;1.47;;;0.73;;
20649;SDS011;10484;48.736;9.332;2024-03-02T13:25:01;0.80;;;0.63;;
20649;SDS011;10484;48.736;9.332;2024-03-02T13:27:29;0.70;;;0.70;;
20649;SDS011;10484;48.736;9.332;2024-03-02T13:29:56;0.87;;;0.60;;
20649;SDS011;10484;48.736;9.332;2024-03-02T13:32:21;0.80;;;0.77;;
20649;SDS011;10484;48.736;9.332;2024-03-02T13:34:49;0.87;;;0.70;;
20649;SDS011;10484;48.736;9.332;2024-03-02T13:37:15;1.10;;;0.60;;
20649;SDS011;10484;48.736;9.332;2024-03-02T13:39:40;0.80;;;0.67;;
20649;SDS011;10484;48.736;9.332;2024-03-02T13:42:10;0.97;;;0.80;;
20649;SDS011;10484;48.736;9.332;2024-03-02T13:44:38;1.20;;;0.70;;
20649;SDS011;10484;48.736;9.332;2024-03-02T13:47:04;0.60;;;0.60;;
20649;SDS011;10484;48.736;9.332;2024-03-02T13:49:31;1.53;;;0.90;;
20649;SDS011;10484;48.736;9.332;2024-03-02T13:52:02;0.70;;;0.50;;
20649;SDS011;10484;48.736;9.332;2024-03-02T13:54:30;1.33;;;1.23;;
20649;SDS011;10484;48.736;9.332;2024-03-02T13:56:56;1.10;;;0.80;;
20649;SDS011;10484;48.736;9.332;2024-03-02T13:59:23;1.83;;;0.83;;
20649;SDS011;10484;48.736;9.332;2024-03-02T14:01:51;0.77;;;0.77;;
20649;SDS011;10484;48.736;9.332;2024-03-02T14:04:17;1.10;;;1.00;;
20649;SDS011;10484;48.736;9.332;2024-03-02T14:06:43;0.90;;;0.90;;
20649;SDS011;10484;48.736;9.332;2024-03-02T14:09:09;1.17;;;0.90;;
20649;SDS011;10484;48.736;9.332;2024-03-02T14:11:34;0.90;;;0.70;;
20649;SDS011;10484;48.736;9.332;2024-03-02T14:14:00;1.43;;;0.70;;
20649;SDS011;10484;48.736;9.332;2024-03-02T14:16:26;0.60;;;0.50;;
20649;SDS011;10484;48.736;9.332;2024-03-02T14:18:52;0.70;;;0.60;;
20649;SDS011;10484;48.736;9.332;2024-03-02T14:21:18;1.10;;;1.00;;
20649;SDS011;10484;48.736;9.332;2024-03-02T14:23:43;1.10;;;0.60;;
20649;SDS011;10484;48.736;9.332;2024-03-02T14:26:09;0.90;;;0.80;;
20649;SDS011;10484;48.736;9.332;2024-03-02T14:28:35;0.83;;;0.77;;
20649;SDS011;10484;48.736;9.332;2024-03-02T14:31:00;1.33;;;1.23;;
20649;SDS011;10484;48.736;9.332;2024-03-02T14:33:26;3.00;;;1.80;;
20649;SDS011;10484;48.736;9.332;2024-03-02T14:35:52;1.10;;;1.00;;
20649;SDS011;10484;48.736;9.332;2024-03-02T14:38:18;1.50;;;1.23;;
20649;SDS011;10484;48.736;9.332;2024-03-02T14:40:44;1.90;;;0.80;;
20649;SDS011;10484;48.736;9.332;2024-03-02T14:43:10;0.90;;;0.80;;
20649;SDS011;10484;48.736;9.332;2024-03-02T14:45:36;2.08;;;0.70;;